sensor_id;sensor_type;location;lat;lon;timestamp;pressure;altitude;pressure_sealevel;temperature
12007;BMP180;6062;47.294;12.182;2023-02-12T00:02:17;81479.00;;;4.40
12007;BMP180;6062;47.294;12.182;2023-02-12T00:04:43;81478.00;;;4.40
12007;BMP180;6062;47.294;12.182;2023-02-12T00:07:09;81468.00;;;4.50
12007;BMP180;6062;47.294;12.182;2023-02-12T00:09:36;81466.00;;;4.50
12007;BMP180;6062;47.294;12.182;2023-02-12T00:12:02;81470.00;;;4.50
12007;BMP180;6062;47.294;12.182;2023-02-12T00:14:28;81478.00;;;4.50
12007;BMP180;6062;47.294;12.182;2023-02-12T00:16:54;81467.00;;;4.60
12007;BMP180;6062;47.294;12.182;2023-02-12T00:19:19;81474.00;;;4.60
12007;BMP180;6062;47.294;12.182;2023-02-12T00:21:45;81475.00;;;4.60
12007;BMP180;6062;47.294;12.182;2023-02-12T00:24:11;81483.00;;;4.60
12007;BMP180;6062;47.294;12.182;2023-02-12T00:26:36;81476.00;;;4.60
12007;BMP180;6062;47.294;12.182;2023-02-12T00:29:02;81474.00;;;4.60
12007;BMP180;6062;47.294;12.182;2023-02-12T00:31:30;81487.00;;;4.60
12007;BMP180;6062;47.294;12.182;2023-02-12T00:33:57;81472.00;;;4.60
12007;BMP180;6062;47.294;12.182;2023-02-12T00:36:26;81475.00;;;4.60
12007;BMP180;6062;47.294;12.182;2023-02-12T00:38:55;81483.00;;;4.50
12007;BMP180;6062;47.294;12.182;2023-02-12T00:41:21;81466.00;;;4.50
12007;BMP180;6062;47.294;12.182;2023-02-12T00:43:48;81478.00;;;4.50
12007;BMP180;6062;47.294;12.182;2023-02-12T00:46:14;81473.00;;;4.50
12007;BMP180;6062;47.294;12.182;2023-02-12T00:48:40;81474.00;;;4.50
12007;BMP180;6062;47.294;12.182;2023-02-12T00:51:06;81476.00;;;4.50
12007;BMP180;6062;47.294;12.182;2023-02-12T00:53:33;81475.00;;;4.50
12007;BMP180;6062;47.294;12.182;2023-02-12T00:55:59;81463.00;;;4.50
12007;BMP180;6062;47.294;12.182;2023-02-12T00:58:25;81465.00;;;4.50
12007;BMP180;6062;47.294;12.182;2023-02-12T01:00:52;81473.00;;;4.50
12007;BMP180;6062;47.294;12.182;2023-02-12T01:03:19;81476.00;;;4.50
12007;BMP180;6062;47.294;12.182;2023-02-12T01:05:45;81477.00;;;4.50
12007;BMP180;6062;47.294;12.182;2023-02-12T01:08:14;81468.00;;;4.50
12007;BMP180;6062;47.294;12.182;2023-02-12T01:10:42;81472.00;;;4.50
12007;BMP180;6062;47.294;12.182;2023-02-12T01:13:13;81473.00;;;4.50
12007;BMP180;6062;47.294;12.182;2023-02-12T01:15:40;81479.00;;;4.50
12007;BMP180;6062;47.294;12.182;2023-02-12T01:18:06;81464.00;;;4.60
12007;BMP180;6062;47.294;12.182;2023-02-12T01:20:32;81473.00;;;4.60
12007;BMP180;6062;47.294;12.182;2023-02-12T01:22:58;81478.00;;;4.60
12007;BMP180;6062;47.294;12.182;2023-02-12T01:25:26;81479.00;;;4.60
12007;BMP180;6062;47.294;12.182;2023-02-12T01:27:52;81465.00;;;4.70
12007;BMP180;6062;47.294;12.182;2023-02-12T01:30:19;81455.00;;;4.70
12007;BMP180;6062;47.294;12.182;2023-02-12T01:32:47;81468.00;;;4.70
12007;BMP180;6062;47.294;12.182;2023-02-12T01:35:13;81463.00;;;4.70
12007;BMP180;6062;47.294;12.182;2023-02-12T01:37:38;81459.00;;;4.70
12007;BMP180;6062;47.294;12.182;2023-02-12T01:40:07;81452.00;;;4.70
12007;BMP180;6062;47.294;12.182;2023-02-12T01:42:33;81450.00;;;4.80
12007;BMP180;6062;47.294;12.182;2023-02-12T01:47:42;81467.00;;;4.80
12007;BMP180;6062;47.294;12.182;2023-02-12T01:50:16;81464.00;;;4.80
12007;BMP180;6062;47.294;12.182;2023-02-12T01:52:50;81460.00;;;4.80
12007;BMP180;6062;47.294;12.182;2023-02-12T01:55:19;81455.00;;;4.90
12007;BMP180;6062;47.294;12.182;2023-02-12T01:57:47;81456.00;;;4.90
12007;BMP180;6062;47.294;12.182;2023-02-12T02:00:17;81465.00;;;4.90
12007;BMP180;6062;47.294;12.182;2023-02-12T02:02:48;81466.00;;;4.90
12007;BMP180;6062;47.294;12.182;2023-02-12T02:05:27;81470.00;;;4.90
12007;BMP180;6062;47.294;12.182;2023-02-12T02:07:55;81468.00;;;4.90
12007;BMP180;6062;47.294;12.182;2023-02-12T02:10:21;81446.00;;;4.90
12007;BMP180;6062;47.294;12.182;2023-02-12T02:12:47;81448.00;;;4.80
12007;BMP180;6062;47.294;12.182;2023-02-12T02:15:31;81439.00;;;4.80
12007;BMP180;6062;47.294;12.182;2023-02-12T02:39:38;81449.00;;;4.70
12007;BMP180;6062;47.294;12.182;2023-02-12T02:45:03;81463.00;;;4.70
12007;BMP180;6062;47.294;12.182;2023-02-12T02:48:00;81464.00;;;4.70
12007;BMP180;6062;47.294;12.182;2023-02-12T02:50:29;81465.00;;;4.60
12007;BMP180;6062;47.294;12.182;2023-02-12T02:53:03;81453.00;;;4.60
12007;BMP180;6062;47.294;12.182;2023-02-12T02:55:39;81465.00;;;4.60
12007;BMP180;6062;47.294;12.182;2023-02-12T02:58:16;81468.00;;;4.50
12007;BMP180;6062;47.294;12.182;2023-02-12T03:01:05;81472.00;;;4.50
12007;BMP180;6062;47.294;12.182;2023-02-12T03:03:50;81472.00;;;4.50
12007;BMP180;6062;47.294;12.182;2023-02-12T03:06:40;81465.00;;;4.50
12007;BMP180;6062;47.294;12.182;2023-02-12T03:09:24;81466.00;;;4.50
12007;BMP180;6062;47.294;12.182;2023-02-12T03:11:59;81452.00;;;4.50
12007;BMP180;6062;47.294;12.182;2023-02-12T03:14:31;81446.00;;;4.50
12007;BMP180;6062;47.294;12.182;2023-02-12T03:17:09;81456.00;;;4.50
12007;BMP180;6062;47.294;12.182;2023-02-12T03:19:48;81446.00;;;4.50
12007;BMP180;6062;47.294;12.182;2023-02-12T03:22:21;81448.00;;;4.50
12007;BMP180;6062;47.294;12.182;2023-02-12T03:25:03;81457.00;;;4.50
12007;BMP180;6062;47.294;12.182;2023-02-12T03:27:43;81459.00;;;4.60
12007;BMP180;6062;47.294;12.182;2023-02-12T03:30:10;81458.00;;;4.60
12007;BMP180;6062;47.294;12.182;2023-02-12T03:32:59;81451.00;;;4.70
12007;BMP180;6062;47.294;12.182;2023-02-12T03:35:37;81462.00;;;4.70
12007;BMP180;6062;47.294;12.182;2023-02-12T03:38:37;81463.00;;;4.80
12007;BMP180;6062;47.294;12.182;2023-02-12T03:41:39;81459.00;;;4.80
12007;BMP180;6062;47.294;12.182;2023-02-12T03:52:35;81472.00;;;4.70
12007;BMP180;6062;47.294;12.182;2023-02-12T03:55:02;81468.00;;;4.70
12007;BMP180;6062;47.294;12.182;2023-02-12T03:57:35;81472.00;;;4.70
12007;BMP180;6062;47.294;12.182;2023-02-12T04:00:09;81472.00;;;4.70
12007;BMP180;6062;47.294;12.182;2023-02-12T04:02:35;81470.00;;;4.70
12007;BMP180;6062;47.294;12.182;2023-02-12T04:05:15;81481.00;;;4.70
12007;BMP180;6062;47.294;12.182;2023-02-12T04:07:41;81485.00;;;4.70
12007;BMP180;6062;47.294;12.182;2023-02-12T04:10:07;81500.00;;;4.70
12007;BMP180;6062;47.294;12.182;2023-02-12T04:12:51;81487.00;;;4.60
12007;BMP180;6062;47.294;12.182;2023-02-12T04:18:18;81516.00;;;4.60
12007;BMP180;6062;47.294;12.182;2023-02-12T04:30:19;81501.00;;;4.40
12007;BMP180;6062;47.294;12.182;2023-02-12T04:33:05;81503.00;;;4.50
12007;BMP180;6062;47.294;12.182;2023-02-12T04:36:07;81507.00;;;4.50
12007;BMP180;6062;47.294;12.182;2023-02-12T04:38:50;81504.00;;;4.50
12007;BMP180;6062;47.294;12.182;2023-02-12T04:41:16;81499.00;;;4.50
12007;BMP180;6062;47.294;12.182;2023-02-12T04:43:42;81499.00;;;4.60
12007;BMP180;6062;47.294;12.182;2023-02-12T04:46:08;81507.00;;;4.60
12007;BMP180;6062;47.294;12.182;2023-02-12T04:48:36;81506.00;;;4.60
12007;BMP180;6062;47.294;12.182;2023-02-12T04:51:06;81488.00;;;4.60
12007;BMP180;6062;47.294;12.182;2023-02-12T04:53:31;81475.00;;;4.70
12007;BMP180;6062;47.294;12.182;2023-02-12T04:55:57;81470.00;;;4.70
12007;BMP180;6062;47.294;12.182;2023-02-12T04:58:22;81481.00;;;4.80
12007;BMP180;6062;47.294;12.182;2023-02-12T05:00:48;81484.00;;;4.80
12007;BMP180;6062;47.294;12.182;2023-02-12T05:03:14;81485.00;;;4.80
12007;BMP180;6062;47.294;12.182;2023-02-12T05:05:39;81499.00;;;4.80
12007;BMP180;6062;47.294;12.182;2023-02-12T05:08:05;81490.00;;;4.80
12007;BMP180;6062;47.294;12.182;2023-02-12T05:10:31;81491.00;;;4.80
12007;BMP180;6062;47.294;12.182;2023-02-12T05:12:56;81482.00;;;4.80
12007;BMP180;6062;47.294;12.182;2023-02-12T05:15:22;81505.00;;;4.80
12007;BMP180;6062;47.294;12.182;2023-02-12T05:17:48;81503.00;;;4.90
12007;BMP180;6062;47.294;12.182;2023-02-12T05:20:14;81506.00;;;4.90
12007;BMP180;6062;47.294;12.182;2023-02-12T05:22:39;81505.00;;;4.90
12007;BMP180;6062;47.294;12.182;2023-02-12T05:25:06;81511.00;;;4.90
12007;BMP180;6062;47.294;12.182;2023-02-12T05:27:32;81518.00;;;4.90
12007;BMP180;6062;47.294;12.182;2023-02-12T05:29:57;81507.00;;;4.90
12007;BMP180;6062;47.294;12.182;2023-02-12T05:32:23;81507.00;;;4.80
12007;BMP180;6062;47.294;12.182;2023-02-12T05:34:49;81508.00;;;4.80
12007;BMP180;6062;47.294;12.182;2023-02-12T05:37:15;81525.00;;;4.80
12007;BMP180;6062;47.294;12.182;2023-02-12T05:39:40;81524.00;;;4.80
12007;BMP180;6062;47.294;12.182;2023-02-12T05:42:06;81517.00;;;4.80
12007;BMP180;6062;47.294;12.182;2023-02-12T05:44:32;81524.00;;;4.70
12007;BMP180;6062;47.294;12.182;2023-02-12T05:46:57;81529.00;;;4.70
12007;BMP180;6062;47.294;12.182;2023-02-12T05:49:23;81529.00;;;4.70
12007;BMP180;6062;47.294;12.182;2023-02-12T05:51:49;81525.00;;;4.70
12007;BMP180;6062;47.294;12.182;2023-02-12T05:54:14;81532.00;;;4.70
12007;BMP180;6062;47.294;12.182;2023-02-12T05:56:46;81521.00;;;4.60
12007;BMP180;6062;47.294;12.182;2023-02-12T05:59:21;81530.00;;;4.60
12007;BMP180;6062;47.294;12.182;2023-02-12T06:01:49;81520.00;;;4.60
12007;BMP180;6062;47.294;12.182;2023-02-12T06:04:23;81517.00;;;4.60
12007;BMP180;6062;47.294;12.182;2023-02-12T06:06:51;81533.00;;;4.50
12007;BMP180;6062;47.294;12.182;2023-02-12T06:09:17;81529.00;;;4.50
12007;BMP180;6062;47.294;12.182;2023-02-12T06:11:43;81529.00;;;4.50
12007;BMP180;6062;47.294;12.182;2023-02-12T06:14:13;81536.00;;;4.40
12007;BMP180;6062;47.294;12.182;2023-02-12T06:16:40;81535.00;;;4.40
12007;BMP180;6062;47.294;12.182;2023-02-12T06:19:08;81532.00;;;4.40
12007;BMP180;6062;47.294;12.182;2023-02-12T06:21:34;81533.00;;;4.40
12007;BMP180;6062;47.294;12.182;2023-02-12T06:24:00;81541.00;;;4.40
12007;BMP180;6062;47.294;12.182;2023-02-12T06:26:26;81535.00;;;4.30
12007;BMP180;6062;47.294;12.182;2023-02-12T06:28:52;81543.00;;;4.40
12007;BMP180;6062;47.294;12.182;2023-02-12T06:31:28;81546.00;;;4.30
12007;BMP180;6062;47.294;12.182;2023-02-12T06:33:57;81541.00;;;4.30
12007;BMP180;6062;47.294;12.182;2023-02-12T06:36:24;81546.00;;;4.30
12007;BMP180;6062;47.294;12.182;2023-02-12T06:38:50;81549.00;;;4.30
12007;BMP180;6062;47.294;12.182;2023-02-12T06:41:16;81552.00;;;4.30
12007;BMP180;6062;47.294;12.182;2023-02-12T06:43:43;81555.00;;;4.30
12007;BMP180;6062;47.294;12.182;2023-02-12T06:46:09;81546.00;;;4.20
12007;BMP180;6062;47.294;12.182;2023-02-12T06:48:35;81535.00;;;4.20
12007;BMP180;6062;47.294;12.182;2023-02-12T06:51:19;81563.00;;;4.30
12007;BMP180;6062;47.294;12.182;2023-02-12T06:53:47;81555.00;;;4.30
12007;BMP180;6062;47.294;12.182;2023-02-12T06:56:13;81562.00;;;4.30
12007;BMP180;6062;47.294;12.182;2023-02-12T06:58:42;81561.00;;;4.30
12007;BMP180;6062;47.294;12.182;2023-02-12T07:01:15;81554.00;;;4.30
12007;BMP180;6062;47.294;12.182;2023-02-12T07:03:46;81548.00;;;4.30
12007;BMP180;6062;47.294;12.182;2023-02-12T07:06:12;81559.00;;;4.30
12007;BMP180;6062;47.294;12.182;2023-02-12T07:08:38;81547.00;;;4.40
12007;BMP180;6062;47.294;12.182;2023-02-12T07:11:04;81562.00;;;4.40
12007;BMP180;6062;47.294;12.182;2023-02-12T07:13:30;81563.00;;;4.50
12007;BMP180;6062;47.294;12.182;2023-02-12T07:16:03;81562.00;;;4.60
12007;BMP180;6062;47.294;12.182;2023-02-12T07:18:30;81558.00;;;4.70
12007;BMP180;6062;47.294;12.182;2023-02-12T07:20:56;81564.00;;;4.70
12007;BMP180;6062;47.294;12.182;2023-02-12T07:23:21;81566.00;;;4.60
12007;BMP180;6062;47.294;12.182;2023-02-12T07:26:02;81566.00;;;4.60
12007;BMP180;6062;47.294;12.182;2023-02-12T07:28:28;81572.00;;;4.60
12007;BMP180;6062;47.294;12.182;2023-02-12T07:30:58;81562.00;;;4.60
12007;BMP180;6062;47.294;12.182;2023-02-12T07:33:24;81558.00;;;4.70
12007;BMP180;6062;47.294;12.182;2023-02-12T07:35:50;81566.00;;;4.80
12007;BMP180;6062;47.294;12.182;2023-02-12T07:38:16;81565.00;;;4.90
12007;BMP180;6062;47.294;12.182;2023-02-12T07:40:42;81565.00;;;5.00
12007;BMP180;6062;47.294;12.182;2023-02-12T07:43:08;81550.00;;;5.10
12007;BMP180;6062;47.294;12.182;2023-02-12T07:45:33;81552.00;;;5.20
12007;BMP180;6062;47.294;12.182;2023-02-12T07:47:59;81560.00;;;5.30
12007;BMP180;6062;47.294;12.182;2023-02-12T07:50:25;81565.00;;;5.40
12007;BMP180;6062;47.294;12.182;2023-02-12T07:52:50;81567.00;;;5.50
12007;BMP180;6062;47.294;12.182;2023-02-12T07:55:16;81564.00;;;5.70
12007;BMP180;6062;47.294;12.182;2023-02-12T07:57:42;81556.00;;;5.80
12007;BMP180;6062;47.294;12.182;2023-02-12T08:00:09;81559.00;;;5.90
12007;BMP180;6062;47.294;12.182;2023-02-12T08:02:35;81555.00;;;6.00
12007;BMP180;6062;47.294;12.182;2023-02-12T08:05:00;81564.00;;;6.10
12007;BMP180;6062;47.294;12.182;2023-02-12T08:07:26;81560.00;;;6.20
12007;BMP180;6062;47.294;12.182;2023-02-12T08:09:52;81568.00;;;6.40
12007;BMP180;6062;47.294;12.182;2023-02-12T08:12:18;81570.00;;;6.50
12007;BMP180;6062;47.294;12.182;2023-02-12T08:14:44;81566.00;;;6.70
12007;BMP180;6062;47.294;12.182;2023-02-12T08:17:10;81571.00;;;7.00
12007;BMP180;6062;47.294;12.182;2023-02-12T08:19:36;81569.00;;;7.50
12007;BMP180;6062;47.294;12.182;2023-02-12T08:22:02;81564.00;;;8.20
12007;BMP180;6062;47.294;12.182;2023-02-12T08:24:29;81566.00;;;9.00
12007;BMP180;6062;47.294;12.182;2023-02-12T08:26:55;81561.00;;;9.80
12007;BMP180;6062;47.294;12.182;2023-02-12T08:29:26;81562.00;;;10.30
12007;BMP180;6062;47.294;12.182;2023-02-12T08:31:58;81565.00;;;10.90
12007;BMP180;6062;47.294;12.182;2023-02-12T08:34:31;81565.00;;;11.40
12007;BMP180;6062;47.294;12.182;2023-02-12T08:36:59;81571.00;;;11.90
12007;BMP180;6062;47.294;12.182;2023-02-12T08:39:27;81567.00;;;12.30
12007;BMP180;6062;47.294;12.182;2023-02-12T08:41:55;81564.00;;;12.50
12007;BMP180;6062;47.294;12.182;2023-02-12T08:44:22;81564.00;;;12.80
12007;BMP180;6062;47.294;12.182;2023-02-12T08:46:51;81559.00;;;13.00
12007;BMP180;6062;47.294;12.182;2023-02-12T08:49:24;81560.00;;;13.40
12007;BMP180;6062;47.294;12.182;2023-02-12T08:51:53;81562.00;;;13.90
12007;BMP180;6062;47.294;12.182;2023-02-12T08:54:25;81573.00;;;14.30
12007;BMP180;6062;47.294;12.182;2023-02-12T08:57:00;81576.00;;;14.30
12007;BMP180;6062;47.294;12.182;2023-02-12T08:59:27;81575.00;;;14.20
12007;BMP180;6062;47.294;12.182;2023-02-12T09:01:53;81580.00;;;14.10
12007;BMP180;6062;47.294;12.182;2023-02-12T09:04:26;81578.00;;;14.20
12007;BMP180;6062;47.294;12.182;2023-02-12T09:06:53;81584.00;;;14.20
12007;BMP180;6062;47.294;12.182;2023-02-12T09:09:19;81588.00;;;14.30
12007;BMP180;6062;47.294;12.182;2023-02-12T09:11:46;81566.00;;;14.40
12007;BMP180;6062;47.294;12.182;2023-02-12T09:14:15;81582.00;;;14.60
12007;BMP180;6062;47.294;12.182;2023-02-12T09:16:42;81596.00;;;14.90
12007;BMP180;6062;47.294;12.182;2023-02-12T09:19:13;81588.00;;;15.30
12007;BMP180;6062;47.294;12.182;2023-02-12T09:21:39;81590.00;;;15.70
12007;BMP180;6062;47.294;12.182;2023-02-12T09:24:05;81589.00;;;16.00
12007;BMP180;6062;47.294;12.182;2023-02-12T09:26:31;81604.00;;;16.50
12007;BMP180;6062;47.294;12.182;2023-02-12T09:28:57;81591.00;;;16.90
12007;BMP180;6062;47.294;12.182;2023-02-12T09:31:29;81596.00;;;17.60
12007;BMP180;6062;47.294;12.182;2023-02-12T09:34:00;81608.00;;;18.30
12007;BMP180;6062;47.294;12.182;2023-02-12T09:36:27;81604.00;;;18.80
12007;BMP180;6062;47.294;12.182;2023-02-12T09:38:53;81599.00;;;19.30
12007;BMP180;6062;47.294;12.182;2023-02-12T09:41:24;81604.00;;;19.70
12007;BMP180;6062;47.294;12.182;2023-02-12T09:44:16;81611.00;;;20.20
12007;BMP180;6062;47.294;12.182;2023-02-12T09:49:48;81633.00;;;20.80
12007;BMP180;6062;47.294;12.182;2023-02-12T09:52:26;81635.00;;;21.00
12007;BMP180;6062;47.294;12.182;2023-02-12T09:54:53;81634.00;;;21.20
12007;BMP180;6062;47.294;12.182;2023-02-12T09:57:35;81644.00;;;21.50
12007;BMP180;6062;47.294;12.182;2023-02-12T10:00:16;81651.00;;;21.80
12007;BMP180;6062;47.294;12.182;2023-02-12T10:02:43;81648.00;;;22.00
12007;BMP180;6062;47.294;12.182;2023-02-12T10:05:26;81649.00;;;22.20
12007;BMP180;6062;47.294;12.182;2023-02-12T10:11:53;81656.00;;;22.80
12007;BMP180;6062;47.294;12.182;2023-02-12T10:17:31;81663.00;;;23.40
12007;BMP180;6062;47.294;12.182;2023-02-12T10:25:49;81671.00;;;23.40
12007;BMP180;6062;47.294;12.182;2023-02-12T10:28:33;81669.00;;;23.10
12007;BMP180;6062;47.294;12.182;2023-02-12T10:31:24;81667.00;;;22.60
12007;BMP180;6062;47.294;12.182;2023-02-12T10:33:51;81666.00;;;22.10
12007;BMP180;6062;47.294;12.182;2023-02-12T10:36:46;81660.00;;;21.50
12007;BMP180;6062;47.294;12.182;2023-02-12T10:39:26;81652.00;;;21.00
12007;BMP180;6062;47.294;12.182;2023-02-12T10:42:18;81662.00;;;20.50
12007;BMP180;6062;47.294;12.182;2023-02-12T10:44:46;81659.00;;;20.20
12007;BMP180;6062;47.294;12.182;2023-02-12T10:47:20;81653.00;;;20.10
12007;BMP180;6062;47.294;12.182;2023-02-12T10:49:57;81646.00;;;20.20
12007;BMP180;6062;47.294;12.182;2023-02-12T10:52:34;81645.00;;;20.40
12007;BMP180;6062;47.294;12.182;2023-02-12T10:55:27;81638.00;;;20.90
12007;BMP180;6062;47.294;12.182;2023-02-12T10:57:54;81631.00;;;21.50
12007;BMP180;6062;47.294;12.182;2023-02-12T11:00:34;81640.00;;;22.10
12007;BMP180;6062;47.294;12.182;2023-02-12T11:05:32;81634.00;;;23.20
12007;BMP180;6062;47.294;12.182;2023-02-12T11:07:58;81626.00;;;23.70
12007;BMP180;6062;47.294;12.182;2023-02-12T11:10:36;81636.00;;;24.20
12007;BMP180;6062;47.294;12.182;2023-02-12T11:13:03;81636.00;;;24.40
12007;BMP180;6062;47.294;12.182;2023-02-12T11:15:47;81638.00;;;24.80
12007;BMP180;6062;47.294;12.182;2023-02-12T11:18:26;81641.00;;;25.10
12007;BMP180;6062;47.294;12.182;2023-02-12T11:21:04;81632.00;;;25.20
12007;BMP180;6062;47.294;12.182;2023-02-12T11:26:27;81647.00;;;25.50
12007;BMP180;6062;47.294;12.182;2023-02-12T11:29:15;81642.00;;;25.60
12007;BMP180;6062;47.294;12.182;2023-02-12T11:31:42;81642.00;;;25.60
12007;BMP180;6062;47.294;12.182;2023-02-12T11:34:23;81646.00;;;25.80
12007;BMP180;6062;47.294;12.182;2023-02-12T11:36:52;81643.00;;;26.10
12007;BMP180;6062;47.294;12.182;2023-02-12T11:42:19;81645.00;;;26.50
12007;BMP180;6062;47.294;12.182;2023-02-12T11:44:54;81640.00;;;26.50
12007;BMP180;6062;47.294;12.182;2023-02-12T11:47:25;81641.00;;;26.30
12007;BMP180;6062;47.294;12.182;2023-02-12T11:50:28;81645.00;;;26.10
12007;BMP180;6062;47.294;12.182;2023-02-12T11:53:03;81638.00;;;25.80
12007;BMP180;6062;47.294;12.182;2023-02-12T11:55:37;81639.00;;;25.40
12007;BMP180;6062;47.294;12.182;2023-02-12T11:58:20;81638.00;;;25.00
12007;BMP180;6062;47.294;12.182;2023-02-12T12:01:13;81641.00;;;24.50
12007;BMP180;6062;47.294;12.182;2023-02-12T12:06:47;81641.00;;;23.80
12007;BMP180;6062;47.294;12.182;2023-02-12T12:09:24;81636.00;;;23.40
12007;BMP180;6062;47.294;12.182;2023-02-12T12:15:21;81629.00;;;22.70
12007;BMP180;6062;47.294;12.182;2023-02-12T12:18:46;81618.00;;;22.30
12007;BMP180;6062;47.294;12.182;2023-02-12T12:22:01;81625.00;;;22.00
12007;BMP180;6062;47.294;12.182;2023-02-12T12:24:55;81609.00;;;21.70
12007;BMP180;6062;47.294;12.182;2023-02-12T12:27:40;81618.00;;;21.40
12007;BMP180;6062;47.294;12.182;2023-02-12T12:33:52;81611.00;;;20.50
12007;BMP180;6062;47.294;12.182;2023-02-12T12:39:48;81608.00;;;19.70
12007;BMP180;6062;47.294;12.182;2023-02-12T12:42:59;81615.00;;;19.20
12007;BMP180;6062;47.294;12.182;2023-02-12T12:46:24;81613.00;;;18.80
12007;BMP180;6062;47.294;12.182;2023-02-12T12:52:02;81609.00;;;18.10
12007;BMP180;6062;47.294;12.182;2023-02-12T12:54:51;81608.00;;;17.80
12007;BMP180;6062;47.294;12.182;2023-02-12T13:00:52;81607.00;;;17.30
12007;BMP180;6062;47.294;12.182;2023-02-12T13:06:31;81603.00;;;16.80
12007;BMP180;6062;47.294;12.182;2023-02-12T13:09:10;81606.00;;;16.60
12007;BMP180;6062;47.294;12.182;2023-02-12T13:12:01;81603.00;;;16.40
12007;BMP180;6062;47.294;12.182;2023-02-12T13:17:33;81602.00;;;16.20
12007;BMP180;6062;47.294;12.182;2023-02-12T13:20:21;81604.00;;;16.00
12007;BMP180;6062;47.294;12.182;2023-02-12T13:22:56;81596.00;;;15.90
12007;BMP180;6062;47.294;12.182;2023-02-12T13:25:48;81596.00;;;15.70
12007;BMP180;6062;47.294;12.182;2023-02-12T13:28:41;81600.00;;;15.60
12007;BMP180;6062;47.294;12.182;2023-02-12T13:31:17;81601.00;;;15.40
12007;BMP180;6062;47.294;12.182;2023-02-12T13:34:02;81604.00;;;15.30
12007;BMP180;6062;47.294;12.182;2023-02-12T13:36:29;81604.00;;;15.20
12007;BMP180;6062;47.294;12.182;2023-02-12T13:39:32;81606.00;;;15.10
12007;BMP180;6062;47.294;12.182;2023-02-12T13:43:04;81598.00;;;15.00
12007;BMP180;6062;47.294;12.182;2023-02-12T13:46:10;81605.00;;;15.00
12007;BMP180;6062;47.294;12.182;2023-02-12T13:51:43;81594.00;;;14.80
12007;BMP180;6062;47.294;12.182;2023-02-12T13:54:23;81602.00;;;14.80
12007;BMP180;6062;47.294;12.182;2023-02-12T13:56:56;81608.00;;;14.70
12007;BMP180;6062;47.294;12.182;2023-02-12T14:04:55;81601.00;;;14.40
12007;BMP180;6062;47.294;12.182;2023-02-12T14:07:42;81608.00;;;14.20
12007;BMP180;6062;47.294;12.182;2023-02-12T14:10:40;81612.00;;;14.10
12007;BMP180;6062;47.294;12.182;2023-02-12T14:13:23;81601.00;;;14.00
12007;BMP180;6062;47.294;12.182;2023-02-12T14:15:54;81603.00;;;13.90
12007;BMP180;6062;47.294;12.182;2023-02-12T14:23:45;81595.00;;;13.50
12007;BMP180;6062;47.294;12.182;2023-02-12T14:26:16;81604.00;;;13.40
12007;BMP180;6062;47.294;12.182;2023-02-12T14:28:45;81600.00;;;13.30
12007;BMP180;6062;47.294;12.182;2023-02-12T14:33:49;81596.00;;;13.00
12007;BMP180;6062;47.294;12.182;2023-02-12T14:36:43;81594.00;;;12.80
12007;BMP180;6062;47.294;12.182;2023-02-12T14:41:45;81589.00;;;12.50
12007;BMP180;6062;47.294;12.182;2023-02-12T14:47:10;81591.00;;;12.10
12007;BMP180;6062;47.294;12.182;2023-02-12T14:49:52;81589.00;;;11.80
12007;BMP180;6062;47.294;12.182;2023-02-12T14:52:26;81587.00;;;11.60
12007;BMP180;6062;47.294;12.182;2023-02-12T14:54:58;81583.00;;;11.40
12007;BMP180;6062;47.294;12.182;2023-02-12T15:00:37;81584.00;;;11.00
12007;BMP180;6062;47.294;12.182;2023-02-12T15:03:15;81590.00;;;10.70
12007;BMP180;6062;47.294;12.182;2023-02-12T15:08:35;81591.00;;;10.20
12007;BMP180;6062;47.294;12.182;2023-02-12T15:11:42;81588.00;;;9.90
12007;BMP180;6062;47.294;12.182;2023-02-12T15:14:26;81586.00;;;9.70
12007;BMP180;6062;47.294;12.182;2023-02-12T15:17:40;81577.00;;;9.50
12007;BMP180;6062;47.294;12.182;2023-02-12T15:20:03;81575.00;;;9.20
12007;BMP180;6062;47.294;12.182;2023-02-12T15:22:38;81568.00;;;9.00
12007;BMP180;6062;47.294;12.182;2023-02-12T15:27:46;81584.00;;;8.60
12007;BMP180;6062;47.294;12.182;2023-02-12T15:30:16;81562.00;;;8.50
12007;BMP180;6062;47.294;12.182;2023-02-12T15:32:42;81576.00;;;8.30
12007;BMP180;6062;47.294;12.182;2023-02-12T15:35:30;81580.00;;;8.10
12007;BMP180;6062;47.294;12.182;2023-02-12T15:37:57;81580.00;;;7.90
12007;BMP180;6062;47.294;12.182;2023-02-12T15:40:29;81579.00;;;7.80
12007;BMP180;6062;47.294;12.182;2023-02-12T15:43:04;81571.00;;;7.60
12007;BMP180;6062;47.294;12.182;2023-02-12T15:45:34;81564.00;;;7.50
12007;BMP180;6062;47.294;12.182;2023-02-12T15:48:17;81575.00;;;7.30
12007;BMP180;6062;47.294;12.182;2023-02-12T15:50:52;81566.00;;;7.20
12007;BMP180;6062;47.294;12.182;2023-02-12T15:53:22;81570.00;;;7.10
12007;BMP180;6062;47.294;12.182;2023-02-12T15:55:49;81574.00;;;7.00
12007;BMP180;6062;47.294;12.182;2023-02-12T15:58:51;81578.00;;;6.90
12007;BMP180;6062;47.294;12.182;2023-02-12T16:01:24;81572.00;;;6.80
12007;BMP180;6062;47.294;12.182;2023-02-12T16:03:53;81576.00;;;6.80
12007;BMP180;6062;47.294;12.182;2023-02-12T16:06:22;81580.00;;;6.70
12007;BMP180;6062;47.294;12.182;2023-02-12T16:09:06;81580.00;;;6.60
12007;BMP180;6062;47.294;12.182;2023-02-12T16:11:34;81579.00;;;6.50
12007;BMP180;6062;47.294;12.182;2023-02-12T16:14:12;81575.00;;;6.40
12007;BMP180;6062;47.294;12.182;2023-02-12T16:16:48;81583.00;;;6.30
12007;BMP180;6062;47.294;12.182;2023-02-12T16:19:25;81574.00;;;6.20
12007;BMP180;6062;47.294;12.182;2023-02-12T16:21:56;81576.00;;;6.10
12007;BMP180;6062;47.294;12.182;2023-02-12T16:24:37;81585.00;;;6.10
12007;BMP180;6062;47.294;12.182;2023-02-12T16:27:16;81578.00;;;6.00
12007;BMP180;6062;47.294;12.182;2023-02-12T16:29:48;81586.00;;;6.00
12007;BMP180;6062;47.294;12.182;2023-02-12T16:32:38;81577.00;;;5.90
12007;BMP180;6062;47.294;12.182;2023-02-12T16:35:30;81579.00;;;5.90
12007;BMP180;6062;47.294;12.182;2023-02-12T16:38:38;81585.00;;;5.80
12007;BMP180;6062;47.294;12.182;2023-02-12T16:41:23;81577.00;;;5.70
12007;BMP180;6062;47.294;12.182;2023-02-12T16:46:20;81582.00;;;5.60
12007;BMP180;6062;47.294;12.182;2023-02-12T16:48:49;81576.00;;;5.50
12007;BMP180;6062;47.294;12.182;2023-02-12T16:51:35;81582.00;;;5.50
12007;BMP180;6062;47.294;12.182;2023-02-12T16:54:04;81575.00;;;5.50
12007;BMP180;6062;47.294;12.182;2023-02-12T16:56:48;81580.00;;;5.40
12007;BMP180;6062;47.294;12.182;2023-02-12T16:59:14;81573.00;;;5.30
12007;BMP180;6062;47.294;12.182;2023-02-12T17:01:39;81578.00;;;5.30
12007;BMP180;6062;47.294;12.182;2023-02-12T17:04:12;81585.00;;;5.30